Time;durP1;ratioP1;P1;durP2;ratioP2;P2;SDS_P1;SDS_P2;PMS_P1;PMS_P2;Temp;Humidity;BMP_temperature;BMP_pressure;BME280_temperature;BME280_humidity;BME280_pressure;Samples;Min_cycle;Max_cycle;Signal;HPM_P1;HPM_P2
2021/11/22 00:01:08;;;;;;;6.75;6.15;;;;;;;9.92;61.78;99500.80;1699629;82;21038;-66
2021/11/22 00:03:36;;;;;;;6.83;6.23;;;;;;;9.93;61.72;99501.12;1695492;82;21045;-65
2021/11/22 00:06:03;;;;;;;6.30;5.70;;;;;;;9.94;61.61;99502.74;1695913;82;21066;-64
2021/11/22 00:08:30;;;;;;;6.85;6.28;;;;;;;9.94;61.60;99500.92;1693448;82;21034;-68
2021/11/22 00:10:57;;;;;;;6.37;5.77;;;;;;;9.95;61.51;99500.41;1696007;82;21556;-67
2021/11/22 00:13:23;;;;;;;5.50;4.87;;;;;;;9.96;61.38;99506.02;1725569;80;22513;-66
2021/11/22 00:15:52;;;;;;;6.23;5.73;;;;;;;9.96;61.30;99507.87;1725998;80;21052;-65
2021/11/22 00:18:19;;;;;;;6.70;6.07;;;;;;;9.91;61.36;99508.50;1727003;80;21057;-67
2021/11/22 00:20:48;;;;;;;7.73;7.03;;;;;;;9.84;61.53;99516.46;1729376;80;21044;-66
2021/11/22 00:23:15;;;;;;;8.20;7.50;;;;;;;9.82;61.71;99512.38;1730856;80;21139;-66
2021/11/22 00:25:41;;;;;;;;;;;;;;;9.82;61.69;99514.52;1734117;82;21104;-65
2021/11/22 00:28:08;;;;;;;7.30;6.60;;;;;;;9.82;61.65;99511.86;1729810;82;20232;-66
2021/11/22 00:30:42;;;;;;;9.17;8.33;;;;;;;9.77;61.80;99522.28;1702864;82;21140;-67
2021/11/22 00:33:11;;;;;;;9.83;8.93;;;;;;;9.76;61.87;99519.33;1731111;80;21101;-66
2021/11/22 00:35:52;;;;;;;9.07;8.10;;;;;;;9.77;61.92;99515.63;1664168;82;21173;-66
2021/11/22 00:38:19;;;;;;;8.07;7.27;;;;;;;9.78;61.99;99515.95;1725347;80;21034;-65
2021/11/22 00:40:47;;;;;;;9.57;8.50;;;;;;;9.80;61.99;99525.07;1726171;80;21049;-68
2021/11/22 00:43:14;;;;;;;7.90;7.10;;;;;;;9.81;61.93;99532.02;1727141;80;21091;-67
2021/11/22 00:45:40;;;;;;;9.23;8.37;;;;;;;9.80;61.99;99527.73;1674400;83;21119;-66
2021/11/22 00:48:08;;;;;;;10.23;7.60;;;;;;;9.78;62.02;99539.91;1693854;82;21120;-64
2021/11/22 00:50:35;;;;;;;9.77;8.77;;;;;;;9.74;62.12;99534.69;1694819;82;22529;-64
2021/11/22 00:53:04;;;;;;;8.33;7.53;;;;;;;9.78;62.17;99536.44;1695892;82;21097;-64
2021/11/22 00:55:32;;;;;;;8.47;7.67;;;;;;;9.76;62.16;99539.30;1697471;81;21726;-64
2021/11/22 00:57:58;;;;;;;7.87;7.17;;;;;;;9.73;62.29;99541.02;1716101;81;21018;-65
2021/11/22 01:00:24;;;;;;;7.70;7.00;;;;;;;9.73;62.44;99539.16;1714085;81;21200;-65
2021/11/22 01:02:51;;;;;;;6.63;6.13;;;;;;;9.75;62.30;99543.77;1691940;83;21067;-66
2021/11/22 01:05:18;;;;;;;11.90;6.87;;;;;;;9.74;62.33;99551.47;1688879;83;21959;-66
2021/11/22 01:07:45;;;;;;;7.27;6.67;;;;;;;9.74;62.37;99552.80;1692509;83;21101;-67
2021/11/22 01:10:15;;;;;;;10.45;6.25;;;;;;;9.69;62.46;99548.58;1690102;83;21140;-65
2021/11/22 01:12:42;;;;;;;7.73;7.07;;;;;;;9.66;62.66;99562.31;1691017;83;21104;-64
2021/11/22 01:15:13;;;;;;;8.40;7.67;;;;;;;9.67;62.79;99555.14;1663183;84;21129;-65
2021/11/22 01:17:42;;;;;;;6.97;6.33;;;;;;;9.69;62.78;99557.08;1693241;82;21042;-66
2021/11/22 01:20:13;;;;;;;8.63;7.83;;;;;;;9.71;62.72;99555.03;1698626;82;21621;-67
2021/11/22 01:22:40;;;;;;;6.50;5.93;;;;;;;9.70;62.74;99546.73;1695493;83;21517;-67
2021/11/22 01:25:09;;;;;;;7.57;6.87;;;;;;;9.70;62.83;99550.23;1697644;82;21145;-64
2021/11/22 01:27:37;;;;;;;8.43;7.50;;;;;;;9.70;62.83;99552.89;1697707;83;21042;-64
2021/11/22 01:30:09;;;;;;;7.83;7.03;;;;;;;9.73;62.80;99554.32;1694245;83;21061;-64
2021/11/22 01:32:37;;;;;;;7.00;6.27;;;;;;;9.80;62.75;99555.16;1695562;83;21043;-66
2021/11/22 01:35:05;;;;;;;7.77;7.07;;;;;;;9.84;62.67;99551.06;1719898;81;21098;-67
2021/11/22 01:37:34;;;;;;;8.10;7.40;;;;;;;9.82;62.66;99553.11;1726635;82;21073;-65
2021/11/22 01:40:00;;;;;;;9.25;8.33;;;;;;;9.77;62.79;99546.23;1725966;81;21046;-65
2021/11/22 01:42:27;;;;;;;;;;;;;;;9.75;62.86;99541.63;1728756;82;21076;-66
2021/11/22 01:44:53;;;;;;;9.03;8.13;;;;;;;9.74;62.97;99551.98;1726550;81;20366;-65
2021/11/22 01:47:19;;;;;;;;;;;;;;;9.69;63.09;99558.41;1727463;82;21567;-63
2021/11/22 01:49:46;;;;;;;9.20;8.20;;;;;;;9.67;63.17;99561.27;1727326;82;20647;-64
2021/11/22 01:52:13;;;;;;;9.20;8.33;;;;;;;9.60;63.40;99567.08;1725851;81;22412;-64
2021/11/22 01:54:40;;;;;;;9.30;8.40;;;;;;;9.58;63.39;99564.32;1725323;82;21549;-65
2021/11/22 01:57:07;;;;;;;8.17;7.47;;;;;;;9.57;63.40;99566.17;1693490;82;21033;-66
2021/11/22 01:59:34;;;;;;;8.10;7.37;;;;;;;9.55;63.49;99568.22;1691766;82;21379;-66
2021/11/22 02:02:03;;;;;;;8.80;7.97;;;;;;;9.54;63.54;99571.88;1683572;82;21520;-66
2021/11/22 02:04:32;;;;;;;8.27;7.47;;;;;;;9.53;63.62;99571.07;1685320;83;21075;-65
2021/11/22 02:06:58;;;;;;;8.80;7.93;;;;;;;9.53;63.70;99568.89;1684506;82;21155;-66
2021/11/22 02:09:27;;;;;;;9.57;8.57;;;;;;;9.57;63.70;99567.98;1684422;82;21029;-64
2021/11/22 02:11:54;;;;;;;9.70;8.70;;;;;;;9.58;63.77;99566.98;1687904;82;20996;-66
2021/11/22 02:14:21;;;;;;;9.77;8.27;;;;;;;9.57;63.85;99564.00;1683629;82;21102;-68
2021/11/22 02:16:48;;;;;;;9.50;8.65;;;;;;;9.56;63.98;99564.52;1686222;82;21069;-65
2021/11/22 02:19:14;;;;;;;;;;;;;;;9.55;63.99;99565.03;1688757;82;21084;-64
2021/11/22 02:21:43;;;;;;;9.47;8.60;;;;;;;9.54;64.01;99572.69;1682946;82;20179;-63
2021/11/22 02:24:10;;;;;;;10.10;9.10;;;;;;;9.46;64.19;99568.89;1688670;82;21138;-63
2021/11/22 02:26:37;;;;;;;10.30;9.30;;;;;;;9.44;64.28;99573.59;1690197;82;21170;-63
2021/11/22 02:29:05;;;;;;;12.00;10.80;;;;;;;9.41;64.48;99580.63;1685057;82;21592;-64
2021/11/22 02:31:33;;;;;;;11.87;10.67;;;;;;;9.37;64.62;99575.92;1687088;82;21201;-66
2021/11/22 02:33:59;;;;;;;11.30;9.60;;;;;;;9.34;64.76;99575.79;1686409;82;21017;-66
2021/11/22 02:36:28;;;;;;;10.23;9.33;;;;;;;9.37;64.84;99579.91;1659294;84;21479;-65
2021/11/22 02:38:54;;;;;;;9.63;8.57;;;;;;;9.40;64.73;99579.01;1673848;84;21656;-64
2021/11/22 02:41:21;;;;;;;10.93;9.38;;;;;;;9.44;64.70;99593.55;1675319;84;21061;-65
2021/11/22 02:43:47;;;;;;;9.93;8.95;;;;;;;9.44;64.72;99588.74;1676296;84;21220;-62
2021/11/22 02:46:15;;;;;;;;;;;;;;;9.42;64.86;99586.28;1659767;84;21518;-64
2021/11/22 02:48:42;;;;;;;10.03;9.03;;;;;;;9.42;64.95;99598.25;1670710;84;20214;-62
2021/11/22 02:51:10;;;;;;;9.23;8.33;;;;;;;9.33;65.22;99598.91;1664622;85;21582;-65
2021/11/22 02:53:38;;;;;;;9.83;8.93;;;;;;;9.29;65.32;99607.50;1673226;84;21034;-65
2021/11/22 02:57:30;;;;;;;10.27;8.67;;;;;;;9.29;65.55;99603.00;1749909;80;22036;-64
2021/11/22 02:59:56;;;;;;;8.83;8.00;;;;;;;9.24;65.70;99595.30;1726951;81;21100;-63
2021/11/22 03:02:25;;;;;;;9.17;8.17;;;;;;;9.20;65.74;99603.36;1709255;81;20980;-64
2021/11/22 03:04:52;;;;;;;7.73;7.03;;;;;;;9.16;65.92;99610.39;1726935;81;21056;-65
2021/11/22 03:07:20;;;;;;;7.67;6.87;;;;;;;9.18;66.02;99610.72;1710142;81;20988;-64
2021/11/22 03:09:47;;;;;;;10.33;7.27;;;;;;;9.24;65.95;99609.92;1713551;81;21092;-64
2021/11/22 03:12:15;;;;;;;8.30;7.50;;;;;;;9.31;65.84;99616.09;1701392;81;20966;-64
2021/11/22 03:14:42;;;;;;;9.20;8.23;;;;;;;9.16;65.78;99590.97;1680855;83;21159;-64
2021/11/22 03:17:09;;;;;;;7.13;6.00;;;;;;;9.37;65.83;99621.95;1683366;83;21078;-63
2021/11/22 03:19:36;;;;;;;8.63;7.83;;;;;;;9.30;65.71;99619.25;1679081;83;21583;-64
2021/11/22 03:22:03;;;;;;;8.18;7.40;;;;;;;9.26;65.94;99621.99;1676974;83;21028;-65
2021/11/22 03:24:29;;;;;;;8.00;7.30;;;;;;;9.20;66.05;99619.32;1683541;83;21013;-64
2021/11/22 03:26:57;;;;;;;7.97;7.20;;;;;;;9.18;66.17;99624.02;1689751;83;21059;-63
2021/11/22 03:29:24;;;;;;;9.17;7.17;;;;;;;9.16;66.27;99628.19;1679044;84;21041;-63
2021/11/22 03:31:51;;;;;;;6.83;6.22;;;;;;;9.16;66.34;99635.66;1686387;83;21072;-63
2021/11/22 03:34:18;;;;;;;6.73;6.13;;;;;;;9.21;66.26;99640.88;1698224;80;21664;-63
2021/11/22 03:36:44;;;;;;;;;;;;;;;9.27;66.22;99642.27;1703903;83;21608;-64
2021/11/22 03:39:20;;;;;;;7.27;6.13;;;;;;;9.31;66.12;99648.02;1706264;83;20151;-64
2021/11/22 03:41:45;;;;;;;6.77;6.03;;;;;;;9.24;66.28;99652.47;1701284;83;21055;-64
2021/11/22 03:44:14;;;;;;;6.60;5.97;;;;;;;9.20;66.39;99656.03;1692374;83;21051;-63
2021/11/22 03:46:46;;;;;;;6.40;5.83;;;;;;;9.14;66.29;99660.29;1694432;83;21538;-62
2021/11/22 03:49:14;;;;;;;5.20;4.70;;;;;;;9.13;66.16;99663.14;1701998;83;21063;-63
2021/11/22 03:51:41;;;;;;;4.53;4.13;;;;;;;9.12;65.57;99658.34;1695489;83;21423;-63
2021/11/22 03:54:08;;;;;;;3.90;3.60;;;;;;;9.07;64.95;99670.58;1689449;83;21503;-63
2021/11/22 03:56:35;;;;;;;3.20;2.90;;;;;;;9.02;64.85;99672.98;1683247;83;21106;-62
2021/11/22 03:59:03;;;;;;;2.67;2.40;;;;;;;8.96;64.23;99679.38;1661900;84;21122;-64
2021/11/22 04:01:30;;;;;;;2.60;2.40;;;;;;;8.89;63.98;99682.53;1655991;84;20980;-64
2021/11/22 04:03:56;;;;;;;;;;;;;;;8.84;63.84;99682.27;1648401;85;21143;-63
2021/11/22 04:06:23;;;;;;;2.03;1.93;;;;;;;8.76;63.65;99681.09;1649383;85;20110;-63
2021/11/22 04:08:52;;;;;;;3.50;2.17;;;;;;;8.64;63.75;99696.72;1647729;85;21997;-63
2021/11/22 04:11:19;;;;;;;1.20;1.17;;;;;;;8.60;63.82;99688.82;1650627;85;21021;-62
2021/11/22 04:13:45;;;;;;;1.37;1.00;;;;;;;8.66;63.72;99696.02;1689359;82;21003;-63
2021/11/22 04:16:12;;;;;;;;;;;;;;;8.72;63.69;99696.60;1699976;82;21056;-62
2021/11/22 04:18:40;;;;;;;1.67;1.30;;;;;;;8.76;63.65;99703.17;1678035;83;20200;-64
2021/11/22 04:21:06;;;;;;;3.50;1.40;;;;;;;8.68;63.91;99703.31;1703501;83;21028;-63
2021/11/22 04:23:34;;;;;;;3.87;1.60;;;;;;;8.66;64.03;99702.66;1698153;82;21048;-64
2021/11/22 04:26:00;;;;;;;4.10;1.90;;;;;;;8.61;64.13;99705.09;1704643;82;21065;-66
2021/11/22 04:28:27;;;;;;;2.47;1.37;;;;;;;8.57;64.22;99714.45;1702659;82;21054;-63
2021/11/22 04:30:54;;;;;;;;;;;;;;;8.55;64.40;99715.97;1707027;82;21059;-64
2021/11/22 04:33:20;;;;;;;2.90;1.80;;;;;;;8.54;64.44;99718.81;1699035;82;20159;-63
2021/11/22 04:35:46;;;;;;;;;;;;;;;8.46;64.72;99729.06;1700745;82;21065;-69
2021/11/22 04:38:13;;;;;;;1.67;1.57;;;;;;;8.44;64.86;99730.23;1697509;82;20136;-65
2021/11/22 04:40:40;;;;;;;2.47;2.37;;;;;;;8.35;65.01;99736.16;1707196;82;21078;-63
2021/11/22 04:43:07;;;;;;;2.30;2.10;;;;;;;8.33;65.18;99739.00;1707746;82;20989;-63
2021/11/22 04:45:34;;;;;;;1.77;1.67;;;;;;;8.36;65.15;99739.97;1677158;82;21045;-64
2021/11/22 04:48:05;;;;;;;1.77;1.67;;;;;;;8.47;65.09;99748.46;1676900;84;21048;-62
2021/11/22 04:50:32;;;;;;;2.57;2.17;;;;;;;8.50;65.07;99752.89;1674342;84;21048;-64
2021/11/22 04:53:01;;;;;;;1.70;1.60;;;;;;;8.52;65.13;99756.70;1680173;84;21020;-63
2021/11/22 04:55:28;;;;;;;3.47;2.00;;;;;;;8.49;65.28;99765.84;1671745;83;21033;-62
2021/11/22 04:57:55;;;;;;;2.20;1.73;;;;;;;8.48;65.37;99768.72;1633623;86;21521;-64
2021/11/22 05:00:24;;;;;;;2.77;2.58;;;;;;;8.46;65.53;99765.42;1641163;86;21083;-64
2021/11/22 05:02:53;;;;;;;2.57;2.20;;;;;;;8.45;65.53;99769.08;1655293;85;21085;-63
2021/11/22 05:05:20;;;;;;;2.00;1.37;;;;;;;8.43;65.65;99776.42;1657767;85;21798;-62
2021/11/22 05:07:47;;;;;;;;;;;;;;;8.38;65.64;99777.78;1653330;85;21010;-63
2021/11/22 05:10:15;;;;;;;1.47;1.37;;;;;;;8.31;65.73;99787.50;1661160;85;20109;-62
2021/11/22 05:12:41;;;;;;;1.80;1.70;;;;;;;8.21;66.20;99783.48;1624085;85;21517;-63
2021/11/22 05:15:08;;;;;;;2.02;1.87;;;;;;;8.16;66.41;99784.88;1608229;87;21052;-62
2021/11/22 05:17:35;;;;;;;1.80;1.70;;;;;;;8.14;66.45;99795.37;1610907;87;21533;-65
2021/11/22 05:20:04;;;;;;;1.87;1.73;;;;;;;8.09;66.56;99803.05;1622380;86;21065;-65
2021/11/22 05:22:31;;;;;;;2.97;2.00;;;;;;;8.06;66.76;99811.37;1635976;85;21008;-64
2021/11/22 05:24:57;;;;;;;1.98;1.65;;;;;;;8.07;66.82;99809.87;1645762;86;21010;-64
2021/11/22 05:27:27;;;;;;;3.27;1.80;;;;;;;8.06;66.80;99820.67;1636789;86;21030;-65
2021/11/22 05:29:54;;;;;;;1.93;1.63;;;;;;;8.04;66.86;99822.69;1646532;86;21560;-63
2021/11/22 05:32:21;;;;;;;1.27;1.17;;;;;;;8.02;66.99;99830.01;1644092;86;21033;-63
2021/11/22 05:34:51;;;;;;;1.40;1.30;;;;;;;8.03;67.18;99829.02;1665703;83;21516;-64
2021/11/22 05:37:19;;;;;;;3.47;0.80;;;;;;;8.07;66.79;99840.91;1660878;84;21045;-65
2021/11/22 05:39:47;;;;;;;1.93;1.57;;;;;;;8.06;66.80;99837.44;1667191;84;21029;-62
2021/11/22 05:42:15;;;;;;;1.37;1.00;;;;;;;8.02;66.82;99840.12;1673478;84;21526;-63
2021/11/22 05:44:44;;;;;;;1.57;1.47;;;;;;;7.97;66.68;99843.33;1647191;84;21089;-63
2021/11/22 05:47:12;;;;;;;1.53;1.43;;;;;;;7.95;66.83;99848.00;1708804;83;20998;-63
2021/11/22 05:49:41;;;;;;;4.83;1.47;;;;;;;7.94;66.95;99846.86;1674395;84;21066;-65
2021/11/22 05:52:11;;;;;;;1.13;1.03;;;;;;;7.92;66.67;99851.52;1697086;83;21464;-63
2021/11/22 05:54:52;;;;;;;0.90;0.80;;;;;;;7.90;66.48;99857.01;1705176;83;21041;-63
2021/11/22 05:57:17;;;;;;;1.00;0.70;;;;;;;7.94;66.21;99856.95;1670216;83;21127;-64
2021/11/22 05:59:44;;;;;;;1.37;1.07;;;;;;;7.92;65.46;99862.95;1670367;84;21058;-63
2021/11/22 06:02:12;;;;;;;2.27;1.17;;;;;;;7.89;65.21;99871.78;1727375;81;21113;-65
2021/11/22 06:04:38;;;;;;;5.03;2.33;;;;;;;7.87;65.09;99876.45;1729343;81;21339;-65
2021/11/22 06:07:05;;;;;;;3.17;1.02;;;;;;;7.83;64.70;99865.38;1730809;81;20950;-64
2021/11/22 06:09:31;;;;;;;;;;;;;;;7.78;64.52;99883.69;1735867;81;21456;-64
2021/11/22 06:11:58;;;;;;;4.37;1.40;;;;;;;7.74;64.66;99882.38;1723420;80;20157;-65
2021/11/22 06:14:25;;;;;;;;;;;;;;;7.66;64.97;99882.47;1671745;84;21073;-65
2021/11/22 06:16:52;;;;;;;4.47;1.62;;;;;;;7.67;65.25;99890.77;1674606;84;20176;-67
2021/11/22 06:19:18;;;;;;;1.40;1.10;;;;;;;7.67;65.21;99894.73;1708306;83;21013;-64
2021/11/22 06:21:44;;;;;;;;;;;;;;;7.72;65.09;99899.83;1675430;84;20997;-64
2021/11/22 06:24:11;;;;;;;1.00;0.77;;;;;;;7.87;64.57;99903.80;1703724;83;20426;-63
2021/11/22 06:26:37;;;;;;;;;;;;;;;7.95;64.16;99898.43;1694472;83;21490;-64
2021/11/22 06:29:04;;;;;;;0.93;0.63;;;;;;;8.04;63.83;99902.31;1669458;84;20106;-64
2021/11/22 06:31:31;;;;;;;1.83;0.80;;;;;;;7.99;63.44;99903.69;1674763;84;21021;-63
2021/11/22 06:33:58;;;;;;;2.57;0.70;;;;;;;7.95;63.42;99910.37;1687874;83;20967;-63
2021/11/22 06:36:25;;;;;;;0.50;0.50;;;;;;;7.96;63.27;99917.31;1705133;82;21035;-65
2021/11/22 06:38:51;;;;;;;1.90;0.80;;;;;;;7.89;63.05;99915.09;1699604;83;21521;-64
2021/11/22 06:41:18;;;;;;;1.50;0.40;;;;;;;7.80;63.05;99920.96;1715194;83;20998;-62
2021/11/22 06:43:45;;;;;;;2.50;0.70;;;;;;;7.70;63.21;99916.40;1704161;83;21134;-64
2021/11/22 06:46:11;;;;;;;0.63;0.60;;;;;;;7.65;63.55;99922.77;1709449;82;21094;-62
2021/11/22 06:48:38;;;;;;;1.05;0.47;;;;;;;7.65;63.44;99923.25;1699046;82;20990;-64
2021/11/22 06:51:05;;;;;;;2.50;0.27;;;;;;;7.62;63.38;99934.23;1699715;82;21052;-66
2021/11/22 06:53:31;;;;;;;1.20;0.40;;;;;;;7.60;63.33;99941.04;1700587;82;21180;-63
2021/11/22 06:55:58;;;;;;;0.43;0.37;;;;;;;7.57;63.55;99935.59;1676501;84;21024;-63
2021/11/22 06:58:24;;;;;;;;;;;;;;;7.60;63.43;99940.53;1700803;84;21100;-65
2021/11/22 07:00:52;;;;;;;1.27;1.00;;;;;;;7.62;63.30;99943.00;1692145;84;20377;-63
2021/11/22 07:03:19;;;;;;;2.53;0.40;;;;;;;7.64;63.14;99950.79;1681889;83;21500;-66
2021/11/22 07:05:48;;;;;;;0.70;0.43;;;;;;;7.70;62.89;99955.37;1677077;83;21120;-63
2021/11/22 07:08:16;;;;;;;0.77;0.60;;;;;;;7.68;62.59;99948.09;1680535;84;21132;-69
2021/11/22 07:10:42;;;;;;;2.87;0.33;;;;;;;7.62;62.74;99948.83;1686887;83;21551;-66
2021/11/22 07:13:09;;;;;;;2.90;0.15;;;;;;;7.62;62.87;99951.48;1686308;83;21029;-67
2021/11/22 07:15:38;;;;;;;0.80;0.30;;;;;;;7.64;62.53;99954.77;1642882;86;21208;-66
2021/11/22 07:18:06;;;;;;;0.70;0.63;;;;;;;7.65;62.50;99965.69;1631255;86;21006;-65
2021/11/22 07:20:33;;;;;;;0.73;0.30;;;;;;;7.67;61.99;99971.67;1652968;86;21757;-66
2021/11/22 07:23:01;;;;;;;0.30;0.30;;;;;;;7.66;61.50;99972.66;1662674;83;21072;-65
2021/11/22 07:25:29;;;;;;;0.85;0.72;;;;;;;7.65;61.38;99979.80;1698990;84;21147;-65
2021/11/22 07:27:55;;;;;;;3.00;0.70;;;;;;;7.63;61.22;99987.59;1695782;84;21009;-65
2021/11/22 07:30:22;;;;;;;0.67;0.40;;;;;;;7.60;61.24;99985.62;1695909;84;21043;-65
2021/11/22 07:32:54;;;;;;;0.30;0.30;;;;;;;7.55;61.38;99995.95;1696658;84;21057;-63
2021/11/22 07:35:22;;;;;;;0.40;0.30;;;;;;;7.52;61.71;99997.62;1698399;83;21076;-66
2021/11/22 07:37:49;;;;;;;1.80;0.70;;;;;;;7.56;61.36;100008.20;1696136;83;21572;-66
2021/11/22 07:40:23;;;;;;;0.40;0.33;;;;;;;7.57;61.40;100005.89;1664842;84;21079;-64
2021/11/22 07:42:52;;;;;;;2.23;0.77;;;;;;;7.58;61.32;99998.23;1695810;84;21197;-67
2021/11/22 07:45:22;;;;;;;3.30;0.40;;;;;;;7.63;60.97;100010.14;1665862;84;21021;-65
2021/11/22 07:47:49;;;;;;;0.20;0.20;;;;;;;7.62;61.14;100019.11;1664468;84;21084;-64
2021/11/22 07:50:22;;;;;;;1.23;0.23;;;;;;;7.62;60.98;100016.46;1675578;84;21084;-64
2021/11/22 07:52:49;;;;;;;1.27;0.30;;;;;;;7.53;60.42;100011.70;1699133;84;21049;-64
2021/11/22 07:55:20;;;;;;;0.30;0.20;;;;;;;7.45;60.62;100017.89;1689088;83;21567;-65
2021/11/22 07:57:47;;;;;;;0.37;0.30;;;;;;;7.39;60.75;100027.37;1659352;84;21071;-66
2021/11/22 08:00:16;;;;;;;0.27;0.20;;;;;;;7.35;61.13;100026.08;1680174;83;21085;-66
2021/11/22 08:02:43;;;;;;;0.87;0.60;;;;;;;7.35;61.13;100026.08;1667744;84;21057;-67
2021/11/22 08:05:10;;;;;;;;;;;;;;;7.39;61.49;100032.67;1685737;83;21080;-66
2021/11/22 08:07:40;;;;;;;0.65;0.37;;;;;;;7.45;61.27;100038.28;1697795;83;20150;-66
2021/11/22 08:10:24;;;;;;;0.30;0.30;;;;;;;7.39;61.63;100041.14;1665953;84;21568;-65
2021/11/22 08:12:44;;;;;;;1.50;0.23;;;;;;;7.41;61.81;100043.11;1693246;82;21092;-67
2021/11/22 08:15:11;;;;;;;;;;;;;;;7.47;62.04;100054.34;1697142;84;21643;-67
2021/11/22 08:17:40;;;;;;;0.95;0.47;;;;;;;7.52;61.96;100054.65;1705639;83;20189;-64
2021/11/22 08:20:09;;;;;;;1.60;0.30;;;;;;;7.50;62.05;100059.30;1712549;83;20996;-69
2021/11/22 08:22:36;;;;;;;1.60;0.20;;;;;;;7.55;62.02;100058.29;1693471;83;21454;-68
2021/11/22 08:25:05;;;;;;;0.77;0.30;;;;;;;7.55;62.01;100062.74;1679824;83;21037;-66
2021/11/22 08:27:32;;;;;;;0.87;0.33;;;;;;;7.51;62.28;100068.89;1668894;84;20951;-65
2021/11/22 08:30:04;;;;;;;0.40;0.33;;;;;;;7.51;62.25;100072.88;1683213;84;21009;-68
2021/11/22 08:32:31;;;;;;;0.60;0.40;;;;;;;7.54;62.17;100073.86;1685822;84;20982;-63
2021/11/22 08:34:57;;;;;;;;;;;;;;;7.57;61.61;100076.17;1673790;84;21037;-68
2021/11/22 08:37:23;;;;;;;0.40;0.20;;;;;;;7.57;61.77;100078.83;1680885;84;20221;-67
2021/11/22 08:39:50;;;;;;;3.20;0.30;;;;;;;7.54;61.79;100084.98;1701245;83;21077;-65
2021/11/22 08:42:18;;;;;;;0.40;0.30;;;;;;;7.50;61.52;100081.84;1680451;84;21021;-64
2021/11/22 08:44:45;;;;;;;0.50;0.37;;;;;;;7.49;61.45;100078.04;1681871;83;21098;-64
2021/11/22 08:47:13;;;;;;;1.00;0.47;;;;;;;7.49;61.12;100080.69;1684217;83;21579;-71
2021/11/22 08:49:42;;;;;;;1.23;0.50;;;;;;;7.37;61.28;100079.75;1693242;83;21583;-64
2021/11/22 08:52:11;;;;;;;1.00;0.53;;;;;;;7.43;61.60;100089.35;1674122;84;21645;-64
2021/11/22 08:54:38;;;;;;;2.00;0.93;;;;;;;7.45;61.54;100096.12;1673919;84;21086;-66
2021/11/22 08:57:09;;;;;;;4.80;2.20;;;;;;;7.45;61.51;100096.62;1680219;82;21689;-64
2021/11/22 08:59:38;;;;;;;4.40;2.47;;;;;;;7.47;61.37;100102.08;1703034;83;21159;-65
2021/11/22 09:02:05;;;;;;;3.70;0.80;;;;;;;7.47;61.42;100094.13;1691029;83;21093;-65
2021/11/22 09:04:31;;;;;;;;;;;;;;;7.50;61.40;100093.78;1710237;83;21108;-65
2021/11/22 09:06:58;;;;;;;0.80;0.30;;;;;;;7.52;61.31;100102.39;1711994;82;20437;-67
2021/11/22 09:09:25;;;;;;;3.47;0.20;;;;;;;7.46;61.16;100097.79;1703758;82;20991;-67
2021/11/22 09:11:52;;;;;;;1.83;0.47;;;;;;;7.41;61.09;100103.59;1680068;83;22174;-65
2021/11/22 09:14:19;;;;;;;0.53;0.30;;;;;;;7.36;60.96;100103.79;1684529;84;21683;-67
2021/11/22 09:16:46;;;;;;;0.43;0.30;;;;;;;7.34;61.09;100105.78;1679287;84;21128;-68
2021/11/22 09:19:15;;;;;;;3.90;0.30;;;;;;;7.34;61.04;100104.46;1668552;84;21077;-68
2021/11/22 09:21:41;;;;;;;;;;;;;;;7.35;60.77;100111.43;1692663;83;21048;-67
2021/11/22 09:24:08;;;;;;;1.90;0.10;;;;;;;7.35;60.62;100109.59;1691475;84;20147;-66
2021/11/22 09:26:35;;;;;;;0.80;0.27;;;;;;;7.31;60.66;100111.42;1681007;84;21037;-66
2021/11/22 09:29:03;;;;;;;5.03;0.33;;;;;;;7.38;60.74;100109.27;1690769;84;21945;-65
2021/11/22 09:31:30;;;;;;;4.83;0.50;;;;;;;7.45;60.65;100111.22;1693615;84;21046;-64
2021/11/22 09:33:56;;;;;;;;;;;;;;;7.31;60.23;100071.66;1689777;83;21600;-64
2021/11/22 09:36:23;;;;;;;0.80;0.33;;;;;;;7.59;59.70;100112.63;1685296;84;20224;-65
2021/11/22 09:38:51;;;;;;;0.80;0.10;;;;;;;7.53;58.84;100120.45;1695162;84;21078;-67
2021/11/22 09:41:18;;;;;;;2.20;0.30;;;;;;;7.44;59.01;100116.17;1691340;84;21018;-67
2021/11/22 09:43:48;;;;;;;2.00;0.20;;;;;;;7.34;59.25;100114.56;1680361;84;21062;-66
2021/11/22 09:46:16;;;;;;;1.57;0.27;;;;;;;7.33;59.24;100120.88;1666637;84;21065;-66
2021/11/22 09:48:43;;;;;;;0.53;0.50;;;;;;;7.32;59.16;100117.89;1691834;83;21066;-67
2021/11/22 09:51:10;;;;;;;0.77;0.20;;;;;;;7.34;59.08;100109.26;1696337;83;21097;-66
2021/11/22 09:53:40;;;;;;;3.23;1.00;;;;;;;7.37;58.90;100117.39;1698019;83;21555;-65
2021/11/22 09:56:09;;;;;;;0.77;0.27;;;;;;;7.37;58.93;100118.20;1699272;83;21063;-66
2021/11/22 09:58:36;;;;;;;5.40;0.50;;;;;;;7.41;58.84;100113.38;1689315;83;21014;-66
2021/11/22 10:01:10;;;;;;;0.40;0.20;;;;;;;7.47;58.42;100115.84;1676115;82;21088;-66
2021/11/22 10:03:36;;;;;;;0.93;0.20;;;;;;;7.48;58.04;100116.16;1720677;81;22256;-67
2021/11/22 10:06:04;;;;;;;0.40;0.20;;;;;;;7.54;58.36;100112.83;1718626;82;21004;-66
2021/11/22 10:08:41;;;;;;;1.77;0.20;;;;;;;7.63;58.33;100114.91;1714155;82;21068;-65
2021/11/22 10:11:11;;;;;;;;;;;;;;;7.72;57.92;100114.72;1696836;83;22248;-66
2021/11/22 10:13:41;;;;;;;0.40;0.40;;;;;;;7.74;57.54;100119.34;1711463;82;20506;-64
2021/11/22 10:16:20;;;;;;;1.87;1.03;;;;;;;7.62;57.41;100113.28;1707925;82;21072;-66
2021/11/22 10:18:52;;;;;;;0.50;0.50;;;;;;;7.58;57.41;100130.04;1690048;83;21432;-67
2021/11/22 10:21:38;;;;;;;3.40;0.60;;;;;;;7.55;57.73;100123.27;1697323;83;21266;-65
2021/11/22 10:24:09;;;;;;;0.55;0.55;;;;;;;7.62;57.87;100119.41;1691112;82;21117;-65
2021/11/22 10:26:47;;;;;;;5.40;1.00;;;;;;;7.74;57.13;100110.54;1690966;84;21388;-67
2021/11/22 10:29:34;;;;;;;1.33;0.67;;;;;;;7.77;57.33;100113.67;1667316;84;21034;-66
2021/11/22 10:32:04;;;;;;;0.42;0.42;;;;;;;7.87;56.97;100123.23;1682781;83;21145;-65
2021/11/22 10:34:38;;;;;;;0.73;0.30;;;;;;;7.85;56.60;100120.75;1698151;83;21800;-65
2021/11/22 10:37:07;;;;;;;0.17;0.17;;;;;;;7.88;56.19;100123.58;1669446;84;21006;-68
2021/11/22 10:39:36;;;;;;;0.30;0.30;;;;;;;7.91;55.64;100114.77;1691252;83;21501;-65
2021/11/22 10:42:07;;;;;;;1.53;0.50;;;;;;;7.92;55.03;100111.09;1695373;83;20978;-65
2021/11/22 10:44:34;;;;;;;0.90;0.70;;;;;;;7.88;55.55;100117.76;1675233;83;21046;-65
2021/11/22 10:47:12;;;;;;;0.75;0.42;;;;;;;7.84;55.63;100123.09;1700044;83;21082;-66
2021/11/22 10:49:42;;;;;;;0.30;0.27;;;;;;;7.74;55.86;100123.80;1685490;83;21120;-66
2021/11/22 10:52:26;;;;;;;0.43;0.20;;;;;;;7.60;56.05;100116.92;1688935;83;21565;-65
2021/11/22 10:54:59;;;;;;;1.70;0.20;;;;;;;7.55;56.38;100113.98;1696482;83;21572;-65
2021/11/22 10:57:40;;;;;;;0.57;0.20;;;;;;;7.57;56.67;100119.09;1683176;82;21084;-67
2021/11/22 11:00:24;;;;;;;0.30;0.30;;;;;;;7.59;56.63;100125.05;1667213;84;21097;-67
2021/11/22 11:02:54;;;;;;;0.63;0.20;;;;;;;7.64;56.41;100131.99;1700609;82;20981;-66
2021/11/22 11:05:37;;;;;;;0.50;0.40;;;;;;;7.62;55.98;100126.03;1711284;82;20990;-69
2021/11/22 11:08:07;;;;;;;0.30;0.20;;;;;;;7.58;56.10;100124.23;1698459;82;21067;-67
2021/11/22 11:10:35;;;;;;;4.17;0.40;;;;;;;7.54;56.27;100136.19;1704406;82;20973;-66
2021/11/22 11:13:04;;;;;;;1.03;0.50;;;;;;;7.53;56.37;100129.73;1683980;84;21317;-65
2021/11/22 11:15:32;;;;;;;0.20;0.20;;;;;;;7.56;56.51;100129.39;1711214;82;21125;-67
2021/11/22 11:18:01;;;;;;;0.60;0.60;;;;;;;7.60;56.31;100131.51;1697775;82;21178;-65
2021/11/22 11:20:29;;;;;;;3.00;0.30;;;;;;;7.61;56.05;100131.03;1709066;82;20990;-67
2021/11/22 11:22:55;;;;;;;1.20;0.70;;;;;;;7.57;56.35;100130.55;1709599;82;21022;-65
2021/11/22 11:25:24;;;;;;;0.65;0.60;;;;;;;7.50;56.57;100138.05;1706464;82;21855;-68
2021/11/22 11:27:53;;;;;;;2.83;0.60;;;;;;;7.46;56.72;100145.52;1709167;82;21036;-65
2021/11/22 11:30:22;;;;;;;0.73;0.40;;;;;;;7.47;56.76;100141.85;1667856;84;21605;-67
2021/11/22 11:32:52;;;;;;;1.47;0.60;;;;;;;7.52;56.55;100145.33;1713235;82;21366;-66
2021/11/22 11:35:22;;;;;;;0.60;0.40;;;;;;;7.56;56.40;100138.17;1715620;82;21069;-66
2021/11/22 11:38:23;;;;;;;0.40;0.20;;;;;;;7.56;55.73;100136.84;1684371;84;21054;-66
2021/11/22 11:41:31;;;;;;;1.43;0.33;;;;;;;7.50;55.72;100140.20;1714343;82;21134;-68
2021/11/22 11:44:08;;;;;;;1.10;0.35;;;;;;;7.41;56.09;100141.23;1671432;84;21007;-67
2021/11/22 11:47:11;;;;;;;0.30;0.17;;;;;;;7.37;56.30;100142.06;1703502;82;21014;-67
2021/11/22 11:49:39;;;;;;;0.20;0.20;;;;;;;7.35;56.49;100141.92;1693744;83;21565;-66
2021/11/22 11:52:29;;;;;;;1.10;0.90;;;;;;;7.30;56.57;100149.05;1697258;83;21086;-67